createdAt,value
2018-01-20T00:00:11.763Z,7.53
2018-01-20T00:02:41.736Z,10.52
2018-01-20T00:05:13.529Z,6.55
2018-01-20T00:07:43.408Z,11.93
2018-01-20T00:10:34.381Z,6.40
2018-01-20T00:13:04.260Z,12.27
2018-01-20T00:15:34.990Z,7.05
2018-01-20T00:18:04.766Z,5.80
2018-01-20T00:20:34.537Z,9.82
2018-01-20T00:23:05.356Z,8.60
2018-01-20T00:25:36.746Z,7.12
2018-01-20T00:28:07.338Z,14.40
2018-01-20T00:30:37.489Z,5.62
2018-01-20T00:33:07.300Z,6.20
2018-01-20T00:35:48.392Z,9.45
2018-01-20T00:38:18.261Z,9.77
2018-01-20T00:40:47.971Z,5.72
2018-01-20T00:43:17.787Z,17.33
2018-01-20T00:45:47.496Z,6.75
2018-01-20T00:48:17.231Z,5.35
2018-01-20T00:50:47.029Z,9.55
2018-01-20T00:53:17.550Z,10.68
2018-01-20T00:55:47.504Z,10.18
2018-01-20T00:58:17.239Z,10.32
2018-01-20T01:00:47.214Z,9.27
2018-01-20T01:03:16.683Z,9.85
2018-01-20T01:05:47.118Z,5.55
2018-01-20T01:08:17.625Z,6.15
2018-01-20T01:10:47.553Z,6.87
2018-01-20T01:13:17.299Z,8.43
2018-01-20T01:15:46.972Z,13.68
2018-01-20T01:18:16.864Z,5.93
2018-01-20T01:20:46.635Z,7.05
2018-01-20T01:23:17.514Z,5.90
2018-01-20T01:25:47.484Z,7.20
2018-01-20T01:28:18.166Z,5.68
2018-01-20T01:30:48.145Z,5.00
2018-01-20T01:33:18.864Z,8.70
2018-01-20T01:35:49.663Z,5.45
2018-01-20T01:38:19.558Z,10.32
2018-01-20T01:40:49.434Z,10.68
2018-01-20T01:43:19.935Z,5.30
2018-01-20T01:45:49.642Z,9.90
2018-01-20T01:48:20.110Z,7.85
2018-01-20T01:50:50.719Z,5.00
2018-01-20T01:53:20.439Z,11.10
2018-01-20T01:55:51.191Z,10.95
2018-01-20T01:58:27.073Z,3.62
2018-01-20T02:00:56.866Z,6.45
2018-01-20T02:03:27.539Z,5.90
2018-01-20T02:05:58.627Z,4.25
2018-01-20T02:08:29.760Z,3.75
2018-01-20T02:10:59.500Z,13.40
2018-01-20T02:13:30.002Z,7.35
2018-01-20T02:16:00.517Z,10.80
2018-01-20T02:18:30.437Z,4.10
2018-01-20T02:21:00.162Z,10.10
2018-01-20T02:23:30.874Z,11.48
2018-01-20T02:26:00.549Z,7.47
2018-01-20T02:28:31.349Z,3.20
2018-01-20T02:31:01.248Z,5.70
2018-01-20T02:33:30.931Z,3.25
2018-01-20T02:36:00.746Z,2.33
2018-01-20T02:38:31.519Z,3.45
2018-01-20T02:41:01.426Z,9.40
2018-01-20T02:43:31.047Z,3.70
2018-01-20T02:46:01.600Z,3.00
2018-01-20T02:48:32.360Z,4.10
2018-01-20T02:51:02.236Z,4.12
2018-01-20T02:53:32.864Z,9.18
2018-01-20T02:56:13.849Z,15.10
2018-01-20T02:58:44.545Z,2.70
2018-01-20T03:01:14.436Z,2.55
2018-01-20T03:03:44.023Z,3.92
2018-01-20T03:06:13.846Z,7.82
2018-01-20T03:08:44.334Z,2.55
2018-01-20T03:11:15.894Z,1.75
2018-01-20T03:13:45.649Z,1.90
2018-01-20T03:16:16.566Z,1.90
2018-01-20T03:18:46.264Z,1.65
2018-01-20T03:21:16.172Z,2.17
2018-01-20T03:23:46.086Z,3.25
2018-01-20T03:26:16.613Z,1.55
2018-01-20T03:28:46.973Z,1.25
2018-01-20T03:31:16.796Z,2.28
2018-01-20T03:33:47.439Z,1.90
2018-01-20T03:36:17.290Z,3.35
2018-01-20T03:38:47.052Z,2.45
2018-01-20T03:41:16.945Z,4.50
2018-01-20T03:43:46.681Z,2.03
2018-01-20T03:46:16.744Z,2.35
2018-01-20T03:48:46.623Z,2.00
2018-01-20T03:51:16.164Z,2.50
2018-01-20T03:53:47.731Z,1.73
2018-01-20T03:56:19.946Z,1.60
2018-01-20T03:58:49.829Z,2.15
2018-01-20T04:01:19.612Z,1.70
2018-01-20T04:03:50.039Z,1.80
2018-01-20T04:06:19.809Z,1.73
2018-01-20T04:08:50.367Z,2.00
2018-01-20T04:11:19.977Z,3.83
2018-01-20T04:13:49.884Z,1.98
2018-01-20T04:16:19.808Z,1.73
2018-01-20T04:18:49.517Z,1.60
2018-01-20T04:21:19.445Z,1.98
2018-01-20T04:23:51.140Z,2.00
2018-01-20T04:26:21.014Z,1.98
2018-01-20T04:28:50.747Z,2.50
2018-01-20T04:31:20.646Z,2.30
2018-01-20T04:33:51.056Z,2.15
2018-01-20T04:36:20.966Z,2.95
2018-01-20T04:38:54.013Z,1.98
2018-01-20T04:41:23.615Z,1.80
2018-01-20T04:43:53.432Z,2.20
2018-01-20T04:46:23.194Z,1.77
2018-01-20T04:48:51.941Z,2.10
2018-01-20T04:51:21.796Z,2.20
2018-01-20T04:53:52.715Z,2.00
2018-01-20T04:56:22.407Z,6.80
2018-01-20T04:58:52.127Z,2.35
2018-01-20T05:01:22.074Z,2.70
2018-01-20T05:03:51.720Z,2.25
2018-01-20T05:06:22.780Z,5.40
2018-01-20T05:08:53.522Z,2.40
2018-01-20T05:11:23.344Z,3.25
2018-01-20T05:13:53.682Z,12.90
2018-01-20T05:16:23.679Z,2.30
2018-01-20T05:18:53.625Z,2.35
2018-01-20T05:21:23.512Z,2.10
2018-01-20T05:23:54.416Z,2.25
2018-01-20T05:26:25.757Z,2.12
2018-01-20T05:28:55.571Z,3.67
2018-01-20T05:31:26.239Z,2.03
2018-01-20T05:33:56.046Z,2.40
2018-01-20T05:36:26.048Z,3.92
2018-01-20T05:38:56.483Z,2.92
2018-01-20T05:41:26.324Z,3.15
2018-01-20T05:43:56.008Z,4.80
2018-01-20T05:46:25.863Z,6.40
2018-01-20T05:48:55.800Z,4.05
2018-01-20T05:51:25.568Z,2.67
2018-01-20T05:53:55.165Z,3.10
2018-01-20T05:56:25.094Z,2.50
2018-01-20T05:58:54.649Z,3.12
2018-01-20T06:01:24.658Z,4.70
2018-01-20T06:03:54.343Z,4.43
2018-01-20T06:06:24.248Z,5.80
2018-01-20T06:08:54.202Z,11.85
2018-01-20T06:11:24.140Z,7.55
2018-01-20T06:13:54.836Z,4.10
2018-01-20T06:16:24.509Z,4.03
2018-01-20T06:18:54.331Z,4.45
2018-01-20T06:21:24.043Z,4.05
2018-01-20T06:23:54.853Z,4.47
2018-01-20T06:26:24.415Z,4.12
2018-01-20T06:28:54.172Z,6.43
2018-01-20T06:31:25.471Z,7.82
2018-01-20T06:33:56.157Z,3.75
2018-01-20T06:36:27.405Z,4.45
2018-01-20T06:38:57.158Z,11.23
2018-01-20T06:41:26.962Z,5.85
2018-01-20T06:43:56.683Z,8.00
2018-01-20T06:46:26.622Z,6.47
2018-01-20T06:48:56.342Z,9.82
2018-01-20T06:51:27.164Z,3.47
2018-01-20T06:53:56.794Z,4.87
2018-01-20T06:56:32.278Z,12.18
2018-01-20T06:59:02.255Z,5.75
2018-01-20T07:01:33.085Z,6.65
2018-01-20T07:04:02.906Z,8.98
2018-01-20T07:06:33.641Z,7.20
2018-01-20T07:09:04.828Z,5.72
2018-01-20T07:11:34.694Z,5.35
2018-01-20T07:14:06.103Z,4.70
2018-01-20T07:16:36.117Z,6.18
2018-01-20T07:19:06.238Z,6.68
2018-01-20T07:21:36.103Z,8.05
2018-01-20T07:24:06.085Z,9.00
2018-01-20T07:26:35.859Z,16.35
2018-01-20T07:29:06.714Z,7.45
2018-01-20T07:31:36.784Z,3.92
2018-01-20T07:34:07.722Z,4.30
2018-01-20T07:36:37.416Z,8.63
2018-01-20T07:39:05.990Z,6.15
2018-01-20T07:41:35.791Z,4.32
2018-01-20T07:44:06.413Z,8.25
2018-01-20T07:46:37.031Z,5.90
2018-01-20T07:49:06.721Z,10.27
2018-01-20T07:51:36.621Z,8.25
2018-01-20T07:54:07.476Z,5.00
2018-01-20T07:56:37.317Z,4.10
2018-01-20T07:59:08.022Z,11.38
2018-01-20T08:01:37.709Z,10.32
2018-01-20T08:04:10.853Z,10.27
2018-01-20T08:06:40.504Z,8.88
2018-01-20T08:09:11.589Z,6.00
2018-01-20T08:11:41.319Z,7.87
2018-01-20T08:14:11.184Z,11.18
2018-01-20T08:16:41.867Z,5.18
2018-01-20T08:19:12.267Z,6.80
2018-01-20T08:21:42.835Z,4.30
2018-01-20T08:24:12.813Z,11.35
2018-01-20T08:26:42.813Z,5.25
2018-01-20T08:29:13.421Z,7.43
2018-01-20T08:31:43.946Z,5.87
2018-01-20T08:34:13.866Z,14.20
2018-01-20T08:36:43.867Z,5.43
2018-01-20T08:39:13.686Z,3.70
2018-01-20T08:41:43.335Z,13.88
2018-01-20T08:44:14.053Z,14.48
2018-01-20T08:46:44.498Z,8.45
2018-01-20T08:49:16.095Z,6.03
2018-01-20T08:51:45.997Z,9.50
2018-01-20T08:54:15.769Z,6.47
2018-01-20T08:56:45.635Z,6.12
2018-01-20T08:59:16.552Z,4.00
2018-01-20T09:01:46.367Z,5.47
2018-01-20T09:04:16.993Z,14.35
2018-01-20T09:06:47.079Z,5.97
2018-01-20T09:09:16.899Z,5.07
2018-01-20T09:11:47.984Z,5.15
2018-01-20T09:14:17.969Z,11.07
2018-01-20T09:16:48.590Z,4.53
2018-01-20T09:19:18.994Z,7.37
2018-01-20T09:21:48.798Z,6.40
2018-01-20T09:24:21.890Z,3.20
2018-01-20T09:26:54.600Z,4.55
2018-01-20T09:29:25.265Z,5.32
2018-01-20T09:31:54.914Z,3.17
2018-01-20T09:34:25.233Z,8.45
2018-01-20T09:36:55.700Z,6.62
2018-01-20T09:39:26.397Z,6.82
2018-01-20T09:41:56.298Z,4.90
2018-01-20T09:44:26.400Z,2.83
2018-01-20T09:46:56.152Z,4.37
2018-01-20T09:49:26.086Z,2.78
2018-01-20T09:51:56.574Z,5.43
2018-01-20T09:54:27.876Z,9.15
2018-01-20T09:56:57.559Z,3.97
2018-01-20T09:59:27.362Z,4.97
2018-01-20T10:01:57.376Z,5.43
2018-01-20T10:04:27.153Z,5.43
2018-01-20T10:06:57.206Z,3.03
2018-01-20T10:09:26.863Z,4.95
2018-01-20T10:11:56.804Z,13.45
2018-01-20T10:14:26.539Z,3.50
2018-01-20T10:16:56.991Z,4.62
2018-01-20T10:19:26.705Z,5.50
2018-01-20T10:21:57.684Z,9.52
2018-01-20T10:24:28.637Z,4.60
2018-01-20T10:27:00.378Z,4.75
2018-01-20T10:29:30.305Z,6.78
2018-01-20T10:32:00.008Z,7.25
2018-01-20T10:34:34.658Z,6.78
2018-01-20T10:37:04.296Z,5.97
2018-01-20T10:39:34.217Z,7.15
2018-01-20T10:42:04.104Z,5.72
2018-01-20T10:44:33.840Z,8.80
2018-01-20T10:47:04.524Z,9.65
2018-01-20T10:49:34.202Z,8.23
2018-01-20T10:52:04.076Z,10.68
2018-01-20T10:54:33.896Z,7.60
2018-01-20T10:57:04.609Z,6.25
2018-01-20T10:59:34.354Z,4.65
2018-01-20T11:02:04.082Z,7.57
2018-01-20T11:04:34.743Z,9.23
2018-01-20T11:07:04.395Z,6.00
2018-01-20T11:09:34.341Z,6.87
2018-01-20T11:12:04.829Z,4.50
2018-01-20T11:14:34.745Z,22.45
2018-01-20T11:17:04.449Z,4.82
2018-01-20T11:19:34.417Z,4.97
2018-01-20T11:22:05.161Z,4.53
2018-01-20T11:24:35.603Z,7.85
2018-01-20T11:27:05.414Z,4.15
2018-01-20T11:29:35.303Z,3.70
2018-01-20T11:32:06.097Z,4.22
2018-01-20T11:34:36.224Z,7.07
2018-01-20T11:37:06.939Z,4.12
2018-01-20T11:39:36.587Z,3.65
2018-01-20T11:42:07.442Z,5.20
2018-01-20T11:44:37.943Z,5.55
2018-01-20T11:47:07.878Z,10.80
2018-01-20T11:49:37.498Z,3.37
2018-01-20T11:52:09.398Z,4.43
2018-01-20T11:54:40.131Z,4.15
2018-01-20T11:57:10.026Z,3.87
2018-01-20T11:59:40.747Z,11.07
2018-01-20T12:02:11.426Z,3.30
2018-01-20T12:04:41.359Z,5.10
2018-01-20T12:07:11.031Z,6.55
2018-01-20T12:09:40.808Z,8.27
2018-01-20T12:12:11.570Z,7.37
2018-01-20T12:14:41.365Z,3.90
2018-01-20T12:17:19.648Z,3.97
2018-01-20T12:19:49.737Z,9.27
2018-01-20T12:22:19.732Z,9.90
2018-01-20T12:24:49.697Z,4.20
2018-01-20T12:27:19.724Z,6.80
2018-01-20T12:29:50.704Z,4.53
2018-01-20T12:32:20.664Z,16.80
2018-01-20T12:34:50.571Z,3.53
2018-01-20T12:37:20.687Z,19.42
2018-01-20T12:39:50.596Z,6.12
2018-01-20T12:42:28.236Z,3.33
2018-01-20T12:44:58.730Z,8.23
2018-01-20T12:47:28.771Z,3.83
2018-01-20T12:49:58.839Z,7.75
2018-01-20T12:52:28.641Z,21.17
2018-01-20T12:55:00.163Z,4.90
2018-01-20T12:57:29.813Z,6.07
2018-01-20T12:59:59.494Z,5.62
2018-01-20T13:02:29.343Z,4.65
2018-01-20T13:04:59.131Z,4.87
2018-01-20T13:07:29.829Z,6.85
2018-01-20T13:09:59.601Z,3.20
2018-01-20T13:12:29.484Z,5.28
2018-01-20T13:14:59.173Z,9.32
2018-01-20T13:17:29.065Z,3.58
2018-01-20T13:20:00.107Z,12.05
2018-01-20T13:22:29.931Z,4.35
2018-01-20T13:24:59.640Z,6.25
2018-01-20T13:27:29.465Z,8.15
2018-01-20T13:29:59.117Z,6.03
2018-01-20T13:32:29.776Z,16.23
2018-01-20T13:34:59.534Z,4.60
2018-01-20T13:37:30.343Z,6.35
2018-01-20T13:40:00.100Z,7.03
2018-01-20T13:42:29.938Z,4.80
2018-01-20T13:44:59.542Z,13.90
2018-01-20T13:47:30.158Z,10.93
2018-01-20T13:49:59.944Z,9.35
2018-01-20T13:52:30.545Z,17.62
2018-01-20T13:55:00.679Z,5.93
2018-01-20T13:57:30.415Z,13.70
2018-01-20T14:00:00.269Z,5.20
2018-01-20T14:02:29.931Z,7.18
2018-01-20T14:04:59.788Z,4.18
2018-01-20T14:07:29.694Z,4.93
2018-01-20T14:10:00.352Z,9.02
2018-01-20T14:12:30.545Z,5.12
2018-01-20T14:15:00.999Z,10.27
2018-01-20T14:17:30.909Z,7.43
2018-01-20T14:20:01.027Z,5.95
2018-01-20T14:22:30.844Z,8.10
2018-01-20T14:25:00.634Z,5.62
2018-01-20T14:27:30.549Z,4.82
2018-01-20T14:30:01.828Z,9.02
2018-01-20T14:32:31.855Z,14.02
2018-01-20T14:35:01.448Z,6.50
2018-01-20T14:37:31.238Z,5.57
2018-01-20T14:40:01.088Z,9.38
2018-01-20T14:42:30.726Z,8.07
2018-01-20T14:45:00.319Z,10.48
2018-01-20T14:47:30.214Z,4.62
2018-01-20T14:49:59.914Z,6.25
2018-01-20T14:52:30.535Z,5.60
2018-01-20T14:55:00.435Z,4.45
2018-01-20T14:57:30.089Z,7.30
2018-01-20T14:59:59.892Z,3.00
2018-01-20T15:02:29.672Z,3.50
2018-01-20T15:05:00.263Z,6.15
2018-01-20T15:07:30.640Z,4.07
2018-01-20T15:10:00.503Z,4.80
2018-01-20T15:12:30.200Z,3.70
2018-01-20T15:15:00.037Z,3.28
2018-01-20T15:17:29.641Z,2.97
2018-01-20T15:19:59.534Z,3.50
2018-01-20T15:22:29.183Z,3.60
2018-01-20T15:24:59.064Z,4.20
2018-01-20T15:27:29.022Z,3.03
2018-01-20T15:29:58.828Z,3.10
2018-01-20T15:32:28.667Z,3.20
2018-01-20T15:34:58.306Z,2.40
2018-01-20T15:37:29.195Z,6.72
2018-01-20T15:39:59.831Z,2.55
2018-01-20T15:42:29.541Z,4.55
2018-01-20T15:44:59.330Z,5.05
2018-01-20T15:47:29.017Z,4.22
2018-01-20T15:49:58.834Z,4.12
2018-01-20T15:52:29.382Z,3.10
2018-01-20T15:54:59.318Z,4.80
2018-01-20T15:57:29.703Z,3.55
2018-01-20T16:00:00.107Z,3.37
2018-01-20T16:02:31.062Z,5.93
2018-01-20T16:05:00.712Z,3.67
2018-01-20T16:07:31.163Z,4.18
2018-01-20T16:10:00.867Z,3.83
2018-01-20T16:12:31.524Z,3.90
2018-01-20T16:15:01.437Z,5.57
2018-01-20T16:17:30.951Z,3.15
2018-01-20T16:20:00.758Z,2.92
2018-01-20T16:22:30.433Z,4.10
2018-01-20T16:25:01.195Z,2.95
2018-01-20T16:27:30.976Z,12.07
2018-01-20T16:30:01.649Z,3.10
2018-01-20T16:32:35.943Z,2.60
2018-01-20T16:35:04.269Z,2.58
2018-01-20T16:37:31.867Z,4.25
2018-01-20T16:39:59.472Z,2.30
2018-01-20T16:42:27.041Z,3.00
2018-01-20T16:44:54.589Z,3.42
2018-01-20T16:47:22.201Z,4.00
2018-01-20T16:49:50.552Z,4.03
2018-01-20T16:52:18.115Z,3.40
2018-01-20T16:54:47.605Z,3.70
2018-01-20T16:57:15.191Z,6.25
2018-01-20T16:59:42.807Z,4.37
2018-01-20T17:02:10.368Z,12.63
2018-01-20T17:04:37.988Z,4.60
2018-01-20T17:07:05.688Z,8.23
2018-01-20T17:09:33.310Z,4.28
2018-01-20T17:12:01.674Z,5.70
2018-01-20T17:14:29.291Z,3.62
2018-01-20T17:16:56.929Z,6.35
2018-01-20T17:19:24.510Z,6.60
2018-01-20T17:21:52.157Z,4.80
2018-01-20T17:24:21.869Z,8.95
2018-01-20T17:26:50.221Z,7.75
2018-01-20T17:29:17.806Z,7.53
2018-01-20T17:31:46.188Z,4.30
2018-01-20T17:34:14.577Z,3.60
2018-01-20T17:36:42.923Z,4.70
2018-01-20T17:39:10.538Z,12.07
2018-01-20T17:41:38.095Z,5.65
2018-01-20T17:44:05.677Z,3.97
2018-01-20T17:46:35.853Z,4.03
2018-01-20T17:49:05.521Z,4.10
2018-01-20T17:51:35.124Z,4.55
2018-01-20T17:54:05.285Z,4.18
2018-01-20T17:56:35.728Z,4.12
2018-01-20T17:59:05.462Z,4.80
2018-01-20T18:01:36.257Z,6.37
2018-01-20T18:04:06.098Z,6.07
2018-01-20T18:06:35.744Z,4.70
2018-01-20T18:09:06.720Z,4.62
2018-01-20T18:11:37.721Z,4.45
2018-01-20T18:14:08.484Z,4.45
2018-01-20T18:16:38.361Z,9.15
2018-01-20T18:19:08.067Z,4.62
2018-01-20T18:21:38.180Z,5.40
2018-01-20T18:24:16.878Z,3.45
2018-01-20T18:26:48.430Z,5.95
2018-01-20T18:29:18.983Z,6.80
2018-01-20T18:31:48.888Z,3.90
2018-01-20T18:34:18.541Z,4.07
2018-01-20T18:36:48.486Z,4.50
2018-01-20T18:39:18.850Z,4.87
2018-01-20T18:41:48.608Z,4.62
2018-01-20T18:44:18.321Z,5.30
2018-01-20T18:46:47.951Z,4.75
2018-01-20T18:49:18.322Z,4.87
2018-01-20T18:51:48.801Z,6.03
2018-01-20T18:54:19.323Z,5.72
2018-01-20T18:56:49.304Z,9.60
2018-01-20T18:59:20.102Z,6.85
2018-01-20T19:01:51.021Z,7.75
2018-01-20T19:04:21.538Z,6.62
2018-01-20T19:06:51.510Z,7.03
2018-01-20T19:09:21.291Z,4.97
2018-01-20T19:11:50.992Z,9.70
2018-01-20T19:14:20.861Z,9.55
2018-01-20T19:16:50.752Z,7.55
2018-01-20T19:19:20.625Z,8.93
2018-01-20T19:21:50.482Z,9.23
2018-01-20T19:24:20.209Z,10.48
2018-01-20T19:26:54.935Z,6.10
2018-01-20T19:29:25.167Z,5.72
2018-01-20T19:31:54.855Z,8.25
2018-01-20T19:34:24.625Z,9.35
2018-01-20T19:36:54.507Z,6.85
2018-01-20T19:39:24.166Z,10.45
2018-01-20T19:41:54.747Z,7.07
2018-01-20T19:44:24.429Z,11.20
2018-01-20T19:46:54.130Z,8.07
2018-01-20T19:49:24.689Z,10.32
2018-01-20T19:51:54.610Z,9.23
2018-01-20T19:54:24.297Z,11.77
2018-01-20T19:56:55.632Z,8.80
2018-01-20T19:59:33.936Z,12.40
2018-01-20T20:02:04.970Z,9.50
2018-01-20T20:04:35.783Z,10.82
2018-01-20T20:07:05.766Z,9.45
2018-01-20T20:09:35.454Z,10.10
2018-01-20T20:12:05.132Z,9.32
2018-01-20T20:14:36.760Z,10.73
2018-01-20T20:17:07.352Z,11.65
2018-01-20T20:19:37.252Z,14.73
2018-01-20T20:22:07.572Z,12.68
2018-01-20T20:24:38.516Z,17.70
2018-01-20T20:27:09.050Z,18.00
2018-01-20T20:29:39.587Z,14.25
2018-01-20T20:32:09.331Z,15.82
2018-01-20T20:34:39.010Z,17.60
2018-01-20T20:37:08.867Z,19.33
2018-01-20T20:39:38.466Z,19.08
2018-01-20T20:42:08.537Z,13.75
2018-01-20T20:44:39.810Z,17.23
2018-01-20T20:47:11.591Z,22.67
2018-01-20T20:49:42.079Z,20.60
2018-01-20T20:52:12.830Z,17.80
2018-01-20T20:54:42.666Z,18.12
2018-01-20T20:57:13.210Z,19.00
2018-01-20T20:59:43.741Z,24.40
2018-01-20T21:02:13.396Z,19.33
2018-01-20T21:04:43.447Z,19.58
2018-01-20T21:07:13.134Z,19.80
2018-01-20T21:09:43.033Z,23.02
2018-01-20T21:12:14.252Z,18.10
2018-01-20T21:14:44.076Z,24.80
2018-01-20T21:17:15.430Z,19.42
2018-01-20T21:19:46.047Z,24.20
2018-01-20T21:22:17.413Z,21.45
2018-01-20T21:24:47.965Z,24.98
2018-01-20T21:27:18.681Z,23.65
2018-01-20T21:29:49.165Z,25.33
2018-01-20T21:32:18.977Z,24.33
2018-01-20T21:34:48.749Z,26.08
2018-01-20T21:37:19.264Z,31.75
2018-01-20T21:39:49.809Z,29.63
2018-01-20T21:42:19.755Z,26.40
2018-01-20T21:44:49.450Z,29.73
2018-01-20T21:47:20.054Z,26.52
2018-01-20T21:49:49.891Z,33.38
2018-01-20T21:52:19.620Z,33.50
2018-01-20T21:54:49.226Z,30.62
2018-01-20T21:57:19.102Z,30.77
2018-01-20T21:59:49.703Z,38.55
2018-01-20T22:02:19.604Z,33.20
2018-01-20T22:04:49.378Z,33.95
2018-01-20T22:07:20.018Z,29.80
2018-01-20T22:09:49.880Z,28.60
2018-01-20T22:12:19.508Z,35.88
2018-01-20T22:14:50.022Z,30.70
2018-01-20T22:17:19.754Z,31.25
2018-01-20T22:19:50.316Z,39.85
2018-01-20T22:22:20.057Z,33.50
2018-01-20T22:24:51.803Z,36.13
2018-01-20T22:27:21.672Z,37.65
2018-01-20T22:29:51.604Z,32.55
2018-01-20T22:32:21.475Z,32.72
2018-01-20T22:34:51.142Z,36.20
2018-01-20T22:37:20.822Z,36.05
2018-01-20T22:39:52.371Z,35.58
2018-01-20T22:42:22.011Z,33.28
2018-01-20T22:44:55.155Z,25.83
2018-01-20T22:47:25.610Z,32.03
2018-01-20T22:49:56.187Z,27.02
2018-01-20T22:52:25.853Z,26.33
2018-01-20T22:54:56.328Z,29.02
2018-01-20T22:57:26.240Z,28.98
2018-01-20T22:59:55.931Z,29.85
2018-01-20T23:02:26.107Z,24.90
2018-01-20T23:04:56.716Z,26.92
2018-01-20T23:07:27.473Z,26.45
2018-01-20T23:09:57.142Z,30.98
2018-01-20T23:12:27.025Z,34.33
2018-01-20T23:14:56.993Z,31.65
2018-01-20T23:17:26.842Z,26.27
2018-01-20T23:19:58.126Z,26.95
2018-01-20T23:22:30.030Z,29.70
2018-01-20T23:25:00.845Z,30.08
2018-01-20T23:27:31.604Z,21.25
2018-01-20T23:30:01.249Z,25.58
2018-01-20T23:32:31.115Z,27.05
2018-01-20T23:35:00.905Z,27.77
2018-01-20T23:37:31.494Z,28.05
2018-01-20T23:40:01.999Z,29.83
2018-01-20T23:42:33.324Z,29.80
2018-01-20T23:45:04.061Z,29.77
2018-01-20T23:47:34.660Z,31.15
2018-01-20T23:50:05.455Z,30.85
2018-01-20T23:52:35.145Z,30.33
2018-01-20T23:55:04.789Z,28.77
2018-01-20T23:57:36.483Z,36.15
